sensor_id;sensor_type;location;lat;lon;timestamp;P1;durP1;ratioP1;P2;durP2;ratioP2
74658;SDS011;63186;51.204;6.536;2022-10-18T00:01:15;8.73;;;3.93;;
74658;SDS011;63186;51.204;6.536;2022-10-18T00:03:41;13.20;;;4.17;;
74658;SDS011;63186;51.204;6.536;2022-10-18T00:06:06;12.25;;;5.00;;
74658;SDS011;63186;51.204;6.536;2022-10-18T00:08:33;9.23;;;3.80;;
74658;SDS011;63186;51.204;6.536;2022-10-18T00:10:59;8.88;;;3.67;;
74658;SDS011;63186;51.204;6.536;2022-10-18T00:13:25;9.25;;;3.88;;
74658;SDS011;63186;51.204;6.536;2022-10-18T00:15:58;9.80;;;3.90;;
74658;SDS011;63186;51.204;6.536;2022-10-18T00:18:25;8.15;;;3.83;;
74658;SDS011;63186;51.204;6.536;2022-10-18T00:20:55;10.18;;;4.43;;
74658;SDS011;63186;51.204;6.536;2022-10-18T00:23:29;10.45;;;4.15;;
74658;SDS011;63186;51.204;6.536;2022-10-18T00:25:59;11.73;;;4.50;;
74658;SDS011;63186;51.204;6.536;2022-10-18T00:28:27;7.93;;;3.92;;
74658;SDS011;63186;51.204;6.536;2022-10-18T00:30:52;10.37;;;4.37;;
74658;SDS011;63186;51.204;6.536;2022-10-18T00:33:17;8.70;;;3.93;;
74658;SDS011;63186;51.204;6.536;2022-10-18T00:35:43;13.47;;;4.80;;
74658;SDS011;63186;51.204;6.536;2022-10-18T00:38:08;10.63;;;4.83;;
74658;SDS011;63186;51.204;6.536;2022-10-18T00:40:33;11.57;;;4.70;;
74658;SDS011;63186;51.204;6.536;2022-10-18T00:42:58;11.07;;;5.40;;
74658;SDS011;63186;51.204;6.536;2022-10-18T00:45:24;11.87;;;5.73;;
74658;SDS011;63186;51.204;6.536;2022-10-18T00:47:51;12.82;;;6.10;;
74658;SDS011;63186;51.204;6.536;2022-10-18T00:50:19;10.50;;;4.80;;
74658;SDS011;63186;51.204;6.536;2022-10-18T00:52:48;15.25;;;5.57;;
74658;SDS011;63186;51.204;6.536;2022-10-18T00:55:17;11.48;;;5.40;;
74658;SDS011;63186;51.204;6.536;2022-10-18T00:57:43;13.23;;;5.40;;
74658;SDS011;63186;51.204;6.536;2022-10-18T01:00:09;13.00;;;5.72;;
74658;SDS011;63186;51.204;6.536;2022-10-18T01:02:36;13.20;;;5.45;;
74658;SDS011;63186;51.204;6.536;2022-10-18T01:05:03;14.63;;;5.47;;
74658;SDS011;63186;51.204;6.536;2022-10-18T01:07:32;13.00;;;5.68;;
74658;SDS011;63186;51.204;6.536;2022-10-18T01:10:17;14.65;;;6.40;;
74658;SDS011;63186;51.204;6.536;2022-10-18T01:13:06;11.65;;;5.38;;
74658;SDS011;63186;51.204;6.536;2022-10-18T01:15:59;11.48;;;5.57;;
74658;SDS011;63186;51.204;6.536;2022-10-18T01:18:33;13.02;;;5.80;;
74658;SDS011;63186;51.204;6.536;2022-10-18T01:30:26;13.93;;;5.82;;
74658;SDS011;63186;51.204;6.536;2022-10-18T01:33:06;12.50;;;6.50;;
74658;SDS011;63186;51.204;6.536;2022-10-18T01:35:41;13.88;;;5.75;;
74658;SDS011;63186;51.204;6.536;2022-10-18T01:38:13;13.18;;;5.95;;
74658;SDS011;63186;51.204;6.536;2022-10-18T01:40:41;10.70;;;5.75;;
74658;SDS011;63186;51.204;6.536;2022-10-18T01:43:11;11.13;;;6.00;;
74658;SDS011;63186;51.204;6.536;2022-10-18T01:45:38;14.10;;;6.53;;
74658;SDS011;63186;51.204;6.536;2022-10-18T01:48:05;14.52;;;6.63;;
74658;SDS011;63186;51.204;6.536;2022-10-18T01:50:32;12.18;;;6.15;;
74658;SDS011;63186;51.204;6.536;2022-10-18T01:52:58;14.63;;;6.07;;
74658;SDS011;63186;51.204;6.536;2022-10-18T01:55:34;10.55;;;5.50;;
74658;SDS011;63186;51.204;6.536;2022-10-18T01:58:17;13.68;;;6.03;;
74658;SDS011;63186;51.204;6.536;2022-10-18T02:00:49;17.75;;;7.38;;
74658;SDS011;63186;51.204;6.536;2022-10-18T02:03:25;14.80;;;6.40;;
74658;SDS011;63186;51.204;6.536;2022-10-18T02:05:55;12.15;;;6.47;;
74658;SDS011;63186;51.204;6.536;2022-10-18T02:08:32;14.43;;;6.32;;
74658;SDS011;63186;51.204;6.536;2022-10-18T02:11:06;12.95;;;6.30;;
74658;SDS011;63186;51.204;6.536;2022-10-18T02:13:50;14.10;;;6.45;;
74658;SDS011;63186;51.204;6.536;2022-10-18T02:16:20;15.55;;;6.00;;
74658;SDS011;63186;51.204;6.536;2022-10-18T02:24:02;12.35;;;5.13;;
74658;SDS011;63186;51.204;6.536;2022-10-18T02:26:29;11.02;;;6.35;;
74658;SDS011;63186;51.204;6.536;2022-10-18T02:28:54;11.93;;;6.33;;
74658;SDS011;63186;51.204;6.536;2022-10-18T02:31:23;13.43;;;5.72;;
74658;SDS011;63186;51.204;6.536;2022-10-18T02:33:57;11.73;;;5.65;;
74658;SDS011;63186;51.204;6.536;2022-10-18T02:36:33;14.15;;;6.43;;
74658;SDS011;63186;51.204;6.536;2022-10-18T02:39:07;13.35;;;7.05;;
74658;SDS011;63186;51.204;6.536;2022-10-18T02:41:40;13.90;;;6.72;;
74658;SDS011;63186;51.204;6.536;2022-10-18T02:44:06;15.32;;;7.18;;
74658;SDS011;63186;51.204;6.536;2022-10-18T02:46:32;14.27;;;7.00;;
74658;SDS011;63186;51.204;6.536;2022-10-18T02:48:58;14.75;;;7.03;;
74658;SDS011;63186;51.204;6.536;2022-10-18T02:51:23;17.10;;;7.67;;
74658;SDS011;63186;51.204;6.536;2022-10-18T02:53:49;16.10;;;7.85;;
74658;SDS011;63186;51.204;6.536;2022-10-18T02:56:14;17.50;;;7.82;;
74658;SDS011;63186;51.204;6.536;2022-10-18T02:58:40;19.17;;;8.40;;
74658;SDS011;63186;51.204;6.536;2022-10-18T03:01:05;16.57;;;7.80;;
74658;SDS011;63186;51.204;6.536;2022-10-18T03:03:31;19.07;;;8.10;;
74658;SDS011;63186;51.204;6.536;2022-10-18T03:05:56;18.93;;;7.93;;
74658;SDS011;63186;51.204;6.536;2022-10-18T03:08:21;19.73;;;7.77;;
74658;SDS011;63186;51.204;6.536;2022-10-18T03:10:47;18.50;;;8.20;;
74658;SDS011;63186;51.204;6.536;2022-10-18T03:13:12;19.35;;;8.40;;
74658;SDS011;63186;51.204;6.536;2022-10-18T03:15:38;18.02;;;7.63;;
74658;SDS011;63186;51.204;6.536;2022-10-18T03:18:04;18.58;;;8.13;;
74658;SDS011;63186;51.204;6.536;2022-10-18T03:20:29;20.88;;;8.15;;
74658;SDS011;63186;51.204;6.536;2022-10-18T03:22:55;19.42;;;7.68;;
74658;SDS011;63186;51.204;6.536;2022-10-18T03:25:20;20.42;;;8.65;;
74658;SDS011;63186;51.204;6.536;2022-10-18T03:27:45;19.33;;;8.10;;
74658;SDS011;63186;51.204;6.536;2022-10-18T03:30:11;22.63;;;8.20;;
74658;SDS011;63186;51.204;6.536;2022-10-18T03:32:37;23.58;;;7.88;;
74658;SDS011;63186;51.204;6.536;2022-10-18T03:35:03;18.83;;;8.52;;
74658;SDS011;63186;51.204;6.536;2022-10-18T03:37:29;19.23;;;8.43;;
74658;SDS011;63186;51.204;6.536;2022-10-18T03:39:55;18.45;;;8.23;;
74658;SDS011;63186;51.204;6.536;2022-10-18T03:42:20;16.00;;;6.82;;
74658;SDS011;63186;51.204;6.536;2022-10-18T03:44:45;13.57;;;6.60;;
74658;SDS011;63186;51.204;6.536;2022-10-18T03:47:11;15.73;;;6.65;;
74658;SDS011;63186;51.204;6.536;2022-10-18T03:49:36;22.38;;;7.40;;
74658;SDS011;63186;51.204;6.536;2022-10-18T03:52:02;18.17;;;7.77;;
74658;SDS011;63186;51.204;6.536;2022-10-18T03:54:27;18.73;;;8.15;;
74658;SDS011;63186;51.204;6.536;2022-10-18T03:56:52;17.57;;;7.60;;
74658;SDS011;63186;51.204;6.536;2022-10-18T03:59:18;18.40;;;8.27;;
74658;SDS011;63186;51.204;6.536;2022-10-18T04:01:43;19.87;;;8.33;;
74658;SDS011;63186;51.204;6.536;2022-10-18T04:04:08;23.30;;;8.37;;
74658;SDS011;63186;51.204;6.536;2022-10-18T04:06:33;23.53;;;9.70;;
74658;SDS011;63186;51.204;6.536;2022-10-18T04:08:59;24.10;;;8.73;;
74658;SDS011;63186;51.204;6.536;2022-10-18T04:11:24;24.70;;;8.77;;
74658;SDS011;63186;51.204;6.536;2022-10-18T04:13:49;22.30;;;8.83;;
74658;SDS011;63186;51.204;6.536;2022-10-18T04:16:15;23.20;;;9.47;;
74658;SDS011;63186;51.204;6.536;2022-10-18T04:18:40;23.40;;;10.17;;
74658;SDS011;63186;51.204;6.536;2022-10-18T04:21:05;27.37;;;9.97;;
74658;SDS011;63186;51.204;6.536;2022-10-18T04:23:31;24.70;;;9.05;;
74658;SDS011;63186;51.204;6.536;2022-10-18T04:25:56;25.03;;;9.10;;
74658;SDS011;63186;51.204;6.536;2022-10-18T04:28:21;26.43;;;10.90;;
74658;SDS011;63186;51.204;6.536;2022-10-18T04:30:50;27.10;;;10.90;;
74658;SDS011;63186;51.204;6.536;2022-10-18T04:33:16;27.98;;;11.10;;
74658;SDS011;63186;51.204;6.536;2022-10-18T04:35:42;25.05;;;10.32;;
74658;SDS011;63186;51.204;6.536;2022-10-18T04:38:07;29.33;;;11.33;;
74658;SDS011;63186;51.204;6.536;2022-10-18T04:40:33;25.40;;;11.50;;
74658;SDS011;63186;51.204;6.536;2022-10-18T04:42:58;31.40;;;11.80;;
74658;SDS011;63186;51.204;6.536;2022-10-18T04:45:23;31.33;;;12.47;;
74658;SDS011;63186;51.204;6.536;2022-10-18T04:47:49;33.10;;;13.83;;
74658;SDS011;63186;51.204;6.536;2022-10-18T04:50:14;32.30;;;13.57;;
74658;SDS011;63186;51.204;6.536;2022-10-18T04:52:39;37.00;;;13.90;;
74658;SDS011;63186;51.204;6.536;2022-10-18T04:55:05;32.83;;;14.33;;
74658;SDS011;63186;51.204;6.536;2022-10-18T04:57:30;31.80;;;13.65;;
74658;SDS011;63186;51.204;6.536;2022-10-18T04:59:55;33.37;;;14.50;;
74658;SDS011;63186;51.204;6.536;2022-10-18T05:02:21;34.77;;;14.67;;
74658;SDS011;63186;51.204;6.536;2022-10-18T05:04:46;35.37;;;15.13;;
74658;SDS011;63186;51.204;6.536;2022-10-18T05:07:11;35.10;;;15.17;;
74658;SDS011;63186;51.204;6.536;2022-10-18T05:09:36;39.43;;;14.67;;
74658;SDS011;63186;51.204;6.536;2022-10-18T05:12:02;34.77;;;15.17;;
74658;SDS011;63186;51.204;6.536;2022-10-18T05:14:27;34.90;;;15.40;;
74658;SDS011;63186;51.204;6.536;2022-10-18T05:16:53;36.67;;;15.20;;
74658;SDS011;63186;51.204;6.536;2022-10-18T05:19:18;35.77;;;14.67;;
74658;SDS011;63186;51.204;6.536;2022-10-18T05:21:43;33.97;;;14.50;;
74658;SDS011;63186;51.204;6.536;2022-10-18T05:24:10;36.67;;;15.50;;
74658;SDS011;63186;51.204;6.536;2022-10-18T05:26:35;36.33;;;15.23;;
74658;SDS011;63186;51.204;6.536;2022-10-18T05:29:01;38.30;;;15.37;;
74658;SDS011;63186;51.204;6.536;2022-10-18T05:31:27;36.35;;;15.60;;
74658;SDS011;63186;51.204;6.536;2022-10-18T05:33:53;36.78;;;15.13;;
74658;SDS011;63186;51.204;6.536;2022-10-18T05:36:18;35.65;;;15.70;;
74658;SDS011;63186;51.204;6.536;2022-10-18T05:38:43;40.73;;;16.27;;
74658;SDS011;63186;51.204;6.536;2022-10-18T05:41:09;39.75;;;15.85;;
74658;SDS011;63186;51.204;6.536;2022-10-18T05:43:35;40.83;;;16.58;;
74658;SDS011;63186;51.204;6.536;2022-10-18T05:46:01;38.30;;;17.20;;
74658;SDS011;63186;51.204;6.536;2022-10-18T05:48:26;42.25;;;16.08;;
74658;SDS011;63186;51.204;6.536;2022-10-18T05:50:52;43.43;;;17.53;;
74658;SDS011;63186;51.204;6.536;2022-10-18T05:53:17;39.97;;;16.40;;
74658;SDS011;63186;51.204;6.536;2022-10-18T05:55:42;37.07;;;16.10;;
74658;SDS011;63186;51.204;6.536;2022-10-18T05:58:07;34.43;;;14.43;;
74658;SDS011;63186;51.204;6.536;2022-10-18T06:00:33;39.77;;;16.30;;
74658;SDS011;63186;51.204;6.536;2022-10-18T06:02:58;30.73;;;14.35;;
74658;SDS011;63186;51.204;6.536;2022-10-18T06:05:23;34.13;;;13.80;;
74658;SDS011;63186;51.204;6.536;2022-10-18T06:07:49;35.17;;;15.73;;
74658;SDS011;63186;51.204;6.536;2022-10-18T06:10:14;25.37;;;12.47;;
74658;SDS011;63186;51.204;6.536;2022-10-18T06:12:39;33.17;;;13.43;;
74658;SDS011;63186;51.204;6.536;2022-10-18T06:15:04;39.73;;;13.80;;
74658;SDS011;63186;51.204;6.536;2022-10-18T06:17:30;32.17;;;13.35;;
74658;SDS011;63186;51.204;6.536;2022-10-18T06:19:55;44.33;;;15.83;;
74658;SDS011;63186;51.204;6.536;2022-10-18T06:22:21;42.73;;;16.60;;
74658;SDS011;63186;51.204;6.536;2022-10-18T06:24:46;49.43;;;17.17;;
74658;SDS011;63186;51.204;6.536;2022-10-18T06:27:11;48.13;;;17.53;;
74658;SDS011;63186;51.204;6.536;2022-10-18T06:29:37;43.40;;;16.42;;
74658;SDS011;63186;51.204;6.536;2022-10-18T06:32:04;43.22;;;17.70;;
74658;SDS011;63186;51.204;6.536;2022-10-18T06:34:30;39.45;;;16.90;;
74658;SDS011;63186;51.204;6.536;2022-10-18T06:36:55;39.08;;;17.70;;
74658;SDS011;63186;51.204;6.536;2022-10-18T06:39:21;50.53;;;21.40;;
74658;SDS011;63186;51.204;6.536;2022-10-18T06:41:46;47.95;;;20.88;;
74658;SDS011;63186;51.204;6.536;2022-10-18T06:44:11;40.13;;;18.77;;
74658;SDS011;63186;51.204;6.536;2022-10-18T06:46:41;39.30;;;18.17;;
74658;SDS011;63186;51.204;6.536;2022-10-18T06:49:08;40.78;;;17.80;;
74658;SDS011;63186;51.204;6.536;2022-10-18T06:51:34;46.65;;;19.23;;
74658;SDS011;63186;51.204;6.536;2022-10-18T06:53:59;41.93;;;18.70;;
74658;SDS011;63186;51.204;6.536;2022-10-18T06:56:25;40.57;;;18.60;;
74658;SDS011;63186;51.204;6.536;2022-10-18T06:58:50;40.37;;;19.90;;
74658;SDS011;63186;51.204;6.536;2022-10-18T07:01:16;40.03;;;17.87;;
74658;SDS011;63186;51.204;6.536;2022-10-18T07:03:42;40.90;;;18.27;;
74658;SDS011;63186;51.204;6.536;2022-10-18T07:06:09;37.67;;;17.92;;
74658;SDS011;63186;51.204;6.536;2022-10-18T07:08:36;36.35;;;18.50;;
74658;SDS011;63186;51.204;6.536;2022-10-18T07:11:02;37.97;;;18.00;;
74658;SDS011;63186;51.204;6.536;2022-10-18T07:13:28;36.88;;;17.70;;
74658;SDS011;63186;51.204;6.536;2022-10-18T07:16:01;41.88;;;19.10;;
74658;SDS011;63186;51.204;6.536;2022-10-18T07:18:35;42.03;;;18.13;;
74658;SDS011;63186;51.204;6.536;2022-10-18T07:21:02;36.75;;;18.70;;
74658;SDS011;63186;51.204;6.536;2022-10-18T07:23:30;39.75;;;18.50;;
74658;SDS011;63186;51.204;6.536;2022-10-18T07:25:59;39.80;;;18.60;;
74658;SDS011;63186;51.204;6.536;2022-10-18T07:28:25;39.33;;;19.05;;
74658;SDS011;63186;51.204;6.536;2022-10-18T07:30:52;37.60;;;19.17;;
74658;SDS011;63186;51.204;6.536;2022-10-18T07:33:17;39.72;;;19.48;;
74658;SDS011;63186;51.204;6.536;2022-10-18T07:35:44;42.78;;;20.42;;
74658;SDS011;63186;51.204;6.536;2022-10-18T07:38:09;36.60;;;19.13;;
74658;SDS011;63186;51.204;6.536;2022-10-18T07:40:35;36.87;;;18.77;;
74658;SDS011;63186;51.204;6.536;2022-10-18T07:43:00;37.57;;;20.17;;
74658;SDS011;63186;51.204;6.536;2022-10-18T07:45:25;39.97;;;19.73;;
74658;SDS011;63186;51.204;6.536;2022-10-18T07:47:56;38.70;;;18.83;;
74658;SDS011;63186;51.204;6.536;2022-10-18T07:50:22;38.70;;;19.42;;
74658;SDS011;63186;51.204;6.536;2022-10-18T07:52:47;34.57;;;17.73;;
74658;SDS011;63186;51.204;6.536;2022-10-18T07:55:13;42.92;;;21.33;;
74658;SDS011;63186;51.204;6.536;2022-10-18T07:57:38;41.72;;;19.30;;
74658;SDS011;63186;51.204;6.536;2022-10-18T08:00:03;35.13;;;18.83;;
74658;SDS011;63186;51.204;6.536;2022-10-18T08:02:29;35.80;;;18.95;;
74658;SDS011;63186;51.204;6.536;2022-10-18T08:04:54;36.73;;;18.93;;
74658;SDS011;63186;51.204;6.536;2022-10-18T08:07:20;35.27;;;17.93;;
74658;SDS011;63186;51.204;6.536;2022-10-18T08:09:45;39.87;;;20.87;;
74658;SDS011;63186;51.204;6.536;2022-10-18T08:12:10;36.07;;;19.10;;
74658;SDS011;63186;51.204;6.536;2022-10-18T08:14:35;36.47;;;20.37;;
74658;SDS011;63186;51.204;6.536;2022-10-18T08:17:01;38.60;;;20.83;;
74658;SDS011;63186;51.204;6.536;2022-10-18T08:19:26;36.87;;;19.23;;
74658;SDS011;63186;51.204;6.536;2022-10-18T08:21:51;39.97;;;19.73;;
74658;SDS011;63186;51.204;6.536;2022-10-18T08:24:16;40.23;;;20.20;;
74658;SDS011;63186;51.204;6.536;2022-10-18T08:26:42;40.70;;;20.17;;
74658;SDS011;63186;51.204;6.536;2022-10-18T08:29:07;41.07;;;20.63;;
74658;SDS011;63186;51.204;6.536;2022-10-18T08:31:32;39.83;;;19.60;;
74658;SDS011;63186;51.204;6.536;2022-10-18T08:33:57;45.07;;;21.67;;
74658;SDS011;63186;51.204;6.536;2022-10-18T08:36:23;43.55;;;20.90;;
74658;SDS011;63186;51.204;6.536;2022-10-18T08:38:49;46.35;;;23.17;;
74658;SDS011;63186;51.204;6.536;2022-10-18T08:46:41;51.63;;;22.27;;
74658;SDS011;63186;51.204;6.536;2022-10-18T08:49:10;49.28;;;24.88;;
74658;SDS011;63186;51.204;6.536;2022-10-18T08:51:50;55.15;;;24.30;;
74658;SDS011;63186;51.204;6.536;2022-10-18T08:54:36;52.25;;;26.90;;
74658;SDS011;63186;51.204;6.536;2022-10-18T08:57:11;55.33;;;25.77;;
74658;SDS011;63186;51.204;6.536;2022-10-18T08:59:39;48.45;;;24.20;;
74658;SDS011;63186;51.204;6.536;2022-10-18T09:02:15;62.65;;;26.80;;
74658;SDS011;63186;51.204;6.536;2022-10-18T09:04:57;59.38;;;27.05;;
74658;SDS011;63186;51.204;6.536;2022-10-18T09:07:37;62.70;;;25.40;;
74658;SDS011;63186;51.204;6.536;2022-10-18T09:10:20;56.78;;;25.13;;
74658;SDS011;63186;51.204;6.536;2022-10-18T09:13:20;56.80;;;25.48;;
74658;SDS011;63186;51.204;6.536;2022-10-18T09:15:56;60.13;;;23.80;;
74658;SDS011;63186;51.204;6.536;2022-10-18T09:24:11;69.55;;;26.75;;
74658;SDS011;63186;51.204;6.536;2022-10-18T09:26:45;71.00;;;27.55;;
74658;SDS011;63186;51.204;6.536;2022-10-18T09:32:15;69.43;;;26.70;;
74658;SDS011;63186;51.204;6.536;2022-10-18T09:34:59;73.25;;;26.95;;
74658;SDS011;63186;51.204;6.536;2022-10-18T09:37:32;62.00;;;26.27;;
74658;SDS011;63186;51.204;6.536;2022-10-18T09:40:01;61.78;;;26.30;;
74658;SDS011;63186;51.204;6.536;2022-10-18T09:42:33;63.20;;;25.95;;
74658;SDS011;63186;51.204;6.536;2022-10-18T09:51:07;65.15;;;26.00;;
74658;SDS011;63186;51.204;6.536;2022-10-18T09:56:32;59.25;;;23.83;;
74658;SDS011;63186;51.204;6.536;2022-10-18T09:59:06;59.55;;;24.92;;
74658;SDS011;63186;51.204;6.536;2022-10-18T10:01:46;52.15;;;22.58;;
74658;SDS011;63186;51.204;6.536;2022-10-18T10:04:12;55.80;;;24.83;;
74658;SDS011;63186;51.204;6.536;2022-10-18T10:06:39;57.05;;;22.48;;
74658;SDS011;63186;51.204;6.536;2022-10-18T10:09:14;52.08;;;22.73;;
74658;SDS011;63186;51.204;6.536;2022-10-18T10:11:48;51.80;;;23.25;;
74658;SDS011;63186;51.204;6.536;2022-10-18T10:14:19;54.22;;;23.45;;
74658;SDS011;63186;51.204;6.536;2022-10-18T10:16:55;56.97;;;23.88;;
74658;SDS011;63186;51.204;6.536;2022-10-18T10:21:53;56.83;;;23.73;;
74658;SDS011;63186;51.204;6.536;2022-10-18T10:24:23;54.70;;;23.13;;
74658;SDS011;63186;51.204;6.536;2022-10-18T10:27:00;58.80;;;23.15;;
74658;SDS011;63186;51.204;6.536;2022-10-18T10:32:12;50.70;;;21.50;;
74658;SDS011;63186;51.204;6.536;2022-10-18T10:34:39;51.10;;;21.05;;
74658;SDS011;63186;51.204;6.536;2022-10-18T10:40:03;47.80;;;21.52;;
74658;SDS011;63186;51.204;6.536;2022-10-18T10:42:28;50.08;;;21.67;;
74658;SDS011;63186;51.204;6.536;2022-10-18T10:44:54;47.53;;;19.25;;
74658;SDS011;63186;51.204;6.536;2022-10-18T10:47:27;45.87;;;20.20;;
74658;SDS011;63186;51.204;6.536;2022-10-18T10:49:55;43.53;;;20.08;;
74658;SDS011;63186;51.204;6.536;2022-10-18T10:52:21;41.13;;;19.13;;
74658;SDS011;63186;51.204;6.536;2022-10-18T10:54:51;45.95;;;20.13;;
74658;SDS011;63186;51.204;6.536;2022-10-18T10:57:19;39.05;;;19.38;;
74658;SDS011;63186;51.204;6.536;2022-10-18T10:59:48;35.65;;;17.98;;
74658;SDS011;63186;51.204;6.536;2022-10-18T11:04:48;38.35;;;18.88;;
74658;SDS011;63186;51.204;6.536;2022-10-18T11:07:40;38.03;;;19.33;;
74658;SDS011;63186;51.204;6.536;2022-10-18T11:10:05;42.10;;;19.33;;
74658;SDS011;63186;51.204;6.536;2022-10-18T11:12:41;38.72;;;17.73;;
74658;SDS011;63186;51.204;6.536;2022-10-18T11:23:19;37.92;;;16.40;;
74658;SDS011;63186;51.204;6.536;2022-10-18T11:28:28;31.08;;;15.65;;
74658;SDS011;63186;51.204;6.536;2022-10-18T11:39:06;36.97;;;15.55;;
74658;SDS011;63186;51.204;6.536;2022-10-18T11:42:00;33.92;;;16.52;;
74658;SDS011;63186;51.204;6.536;2022-10-18T11:44:43;37.80;;;17.00;;
74658;SDS011;63186;51.204;6.536;2022-10-18T11:50:53;37.95;;;16.40;;
74658;SDS011;63186;51.204;6.536;2022-10-18T11:53:31;32.75;;;15.50;;
74658;SDS011;63186;51.204;6.536;2022-10-18T11:56:18;30.30;;;14.32;;
74658;SDS011;63186;51.204;6.536;2022-10-18T12:04:56;35.25;;;15.98;;
74658;SDS011;63186;51.204;6.536;2022-10-18T12:07:24;32.47;;;15.18;;
74658;SDS011;63186;51.204;6.536;2022-10-18T12:09:56;24.65;;;13.93;;
74658;SDS011;63186;51.204;6.536;2022-10-18T12:12:29;30.67;;;16.13;;
74658;SDS011;63186;51.204;6.536;2022-10-18T12:14:58;26.00;;;11.90;;
74658;SDS011;63186;51.204;6.536;2022-10-18T12:17:37;27.80;;;13.45;;
74658;SDS011;63186;51.204;6.536;2022-10-18T12:20:14;25.55;;;11.75;;
74658;SDS011;63186;51.204;6.536;2022-10-18T12:22:46;25.58;;;12.07;;
74658;SDS011;63186;51.204;6.536;2022-10-18T12:25:16;20.17;;;9.70;;
74658;SDS011;63186;51.204;6.536;2022-10-18T12:27:43;22.77;;;10.63;;
74658;SDS011;63186;51.204;6.536;2022-10-18T12:30:31;20.88;;;10.52;;
74658;SDS011;63186;51.204;6.536;2022-10-18T12:33:11;29.50;;;12.50;;
74658;SDS011;63186;51.204;6.536;2022-10-18T12:36:29;23.17;;;11.35;;
74658;SDS011;63186;51.204;6.536;2022-10-18T12:38:43;24.65;;;10.90;;
74658;SDS011;63186;51.204;6.536;2022-10-18T12:41:21;27.10;;;12.80;;
74658;SDS011;63186;51.204;6.536;2022-10-18T12:43:54;27.85;;;12.35;;
74658;SDS011;63186;51.204;6.536;2022-10-18T12:46:52;26.05;;;11.43;;
74658;SDS011;63186;51.204;6.536;2022-10-18T12:52:20;22.05;;;9.45;;
74658;SDS011;63186;51.204;6.536;2022-10-18T12:55:32;20.35;;;8.73;;
74658;SDS011;63186;51.204;6.536;2022-10-18T13:16:47;19.38;;;8.73;;
74658;SDS011;63186;51.204;6.536;2022-10-18T13:27:53;25.85;;;9.35;;
74658;SDS011;63186;51.204;6.536;2022-10-18T13:33:43;21.50;;;8.60;;
74658;SDS011;63186;51.204;6.536;2022-10-18T13:36:24;19.10;;;7.75;;
74658;SDS011;63186;51.204;6.536;2022-10-18T14:03:28;17.30;;;6.50;;
74658;SDS011;63186;51.204;6.536;2022-10-18T14:11:43;16.80;;;6.78;;
74658;SDS011;63186;51.204;6.536;2022-10-18T14:14:34;22.23;;;8.20;;
74658;SDS011;63186;51.204;6.536;2022-10-18T14:19:40;21.30;;;8.88;;
74658;SDS011;63186;51.204;6.536;2022-10-18T14:22:31;17.25;;;7.45;;
74658;SDS011;63186;51.204;6.536;2022-10-18T14:25:02;17.77;;;8.15;;
74658;SDS011;63186;51.204;6.536;2022-10-18T14:27:28;15.55;;;6.95;;
74658;SDS011;63186;51.204;6.536;2022-10-18T14:30:17;20.13;;;7.97;;
74658;SDS011;63186;51.204;6.536;2022-10-18T14:32:47;17.35;;;7.07;;
74658;SDS011;63186;51.204;6.536;2022-10-18T14:35:36;18.27;;;7.72;;
74658;SDS011;63186;51.204;6.536;2022-10-18T14:38:01;22.80;;;8.50;;
74658;SDS011;63186;51.204;6.536;2022-10-18T14:40:31;19.70;;;7.72;;
74658;SDS011;63186;51.204;6.536;2022-10-18T14:43:21;16.27;;;7.55;;
74658;SDS011;63186;51.204;6.536;2022-10-18T14:45:46;19.42;;;7.43;;
74658;SDS011;63186;51.204;6.536;2022-10-18T14:50:38;20.33;;;7.43;;
74658;SDS011;63186;51.204;6.536;2022-10-18T14:53:05;16.33;;;6.95;;
74658;SDS011;63186;51.204;6.536;2022-10-18T14:55:32;17.35;;;7.47;;
74658;SDS011;63186;51.204;6.536;2022-10-18T14:57:57;18.35;;;6.90;;
74658;SDS011;63186;51.204;6.536;2022-10-18T15:00:29;20.17;;;6.50;;
74658;SDS011;63186;51.204;6.536;2022-10-18T15:03:00;20.58;;;7.78;;
74658;SDS011;63186;51.204;6.536;2022-10-18T15:05:26;14.95;;;6.85;;
74658;SDS011;63186;51.204;6.536;2022-10-18T15:07:52;19.43;;;7.17;;
74658;SDS011;63186;51.204;6.536;2022-10-18T15:10:19;25.25;;;7.70;;
74658;SDS011;63186;51.204;6.536;2022-10-18T15:12:47;18.23;;;8.48;;
74658;SDS011;63186;51.204;6.536;2022-10-18T15:15:16;17.33;;;6.88;;
74658;SDS011;63186;51.204;6.536;2022-10-18T15:17:44;15.13;;;6.15;;
74658;SDS011;63186;51.204;6.536;2022-10-18T15:20:22;18.17;;;7.25;;
74658;SDS011;63186;51.204;6.536;2022-10-18T15:22:50;19.13;;;8.13;;
74658;SDS011;63186;51.204;6.536;2022-10-18T15:25:21;18.63;;;7.35;;
74658;SDS011;63186;51.204;6.536;2022-10-18T15:27:50;16.92;;;6.63;;
74658;SDS011;63186;51.204;6.536;2022-10-18T15:32:49;18.83;;;7.13;;
74658;SDS011;63186;51.204;6.536;2022-10-18T15:35:24;15.63;;;6.82;;
74658;SDS011;63186;51.204;6.536;2022-10-18T15:37:52;16.67;;;7.55;;
74658;SDS011;63186;51.204;6.536;2022-10-18T15:42:48;17.27;;;7.10;;
74658;SDS011;63186;51.204;6.536;2022-10-18T15:47:59;15.02;;;6.32;;
74658;SDS011;63186;51.204;6.536;2022-10-18T15:59:00;15.18;;;7.10;;
74658;SDS011;63186;51.204;6.536;2022-10-18T16:01:32;15.70;;;6.93;;
74658;SDS011;63186;51.204;6.536;2022-10-18T16:04:04;16.98;;;6.15;;
74658;SDS011;63186;51.204;6.536;2022-10-18T16:07:03;18.02;;;6.32;;
74658;SDS011;63186;51.204;6.536;2022-10-18T16:09:28;18.13;;;7.07;;
74658;SDS011;63186;51.204;6.536;2022-10-18T16:11:53;18.58;;;7.07;;
74658;SDS011;63186;51.204;6.536;2022-10-18T16:14:19;15.85;;;6.25;;
74658;SDS011;63186;51.204;6.536;2022-10-18T16:16:46;16.30;;;6.50;;
74658;SDS011;63186;51.204;6.536;2022-10-18T16:19:15;21.55;;;7.05;;
74658;SDS011;63186;51.204;6.536;2022-10-18T16:21:45;16.45;;;7.95;;
74658;SDS011;63186;51.204;6.536;2022-10-18T16:24:10;17.47;;;7.27;;
74658;SDS011;63186;51.204;6.536;2022-10-18T16:26:35;15.10;;;5.87;;
74658;SDS011;63186;51.204;6.536;2022-10-18T16:29:02;21.92;;;6.90;;
74658;SDS011;63186;51.204;6.536;2022-10-18T16:31:29;14.80;;;6.78;;
74658;SDS011;63186;51.204;6.536;2022-10-18T16:33:56;16.63;;;6.50;;
74658;SDS011;63186;51.204;6.536;2022-10-18T16:36:23;19.35;;;5.70;;
74658;SDS011;63186;51.204;6.536;2022-10-18T16:38:50;19.30;;;6.05;;
74658;SDS011;63186;51.204;6.536;2022-10-18T16:41:16;12.32;;;5.20;;
74658;SDS011;63186;51.204;6.536;2022-10-18T16:43:42;17.40;;;6.72;;
74658;SDS011;63186;51.204;6.536;2022-10-18T16:46:12;18.88;;;6.95;;
74658;SDS011;63186;51.204;6.536;2022-10-18T16:48:40;14.55;;;5.57;;
74658;SDS011;63186;51.204;6.536;2022-10-18T16:51:10;13.23;;;5.97;;
74658;SDS011;63186;51.204;6.536;2022-10-18T16:53:36;17.45;;;6.70;;
74658;SDS011;63186;51.204;6.536;2022-10-18T16:56:02;16.52;;;6.88;;
74658;SDS011;63186;51.204;6.536;2022-10-18T16:58:29;16.67;;;6.85;;
74658;SDS011;63186;51.204;6.536;2022-10-18T17:00:55;12.80;;;5.80;;
74658;SDS011;63186;51.204;6.536;2022-10-18T17:03:21;16.08;;;6.60;;
74658;SDS011;63186;51.204;6.536;2022-10-18T17:05:47;13.60;;;6.38;;
74658;SDS011;63186;51.204;6.536;2022-10-18T17:08:15;11.67;;;4.80;;
74658;SDS011;63186;51.204;6.536;2022-10-18T17:10:43;20.13;;;6.82;;
74658;SDS011;63186;51.204;6.536;2022-10-18T17:13:08;14.45;;;6.43;;
74658;SDS011;63186;51.204;6.536;2022-10-18T17:15:33;13.13;;;6.73;;
74658;SDS011;63186;51.204;6.536;2022-10-18T17:17:59;16.77;;;7.80;;
74658;SDS011;63186;51.204;6.536;2022-10-18T17:20:25;19.77;;;6.72;;
74658;SDS011;63186;51.204;6.536;2022-10-18T17:22:51;19.38;;;6.28;;